createdAt,value
2019-01-16T00:03:17.436Z,100495.45
2019-01-16T00:08:59.200Z,100743.69
2019-01-16T00:14:41.016Z,100463.22
2019-01-16T00:20:24.488Z,100751.04
2019-01-16T00:25:57.212Z,100735.17
2019-01-16T00:31:39.005Z,100730.16
2019-01-16T00:37:20.771Z,100744.65
2019-01-16T00:43:02.559Z,100743.34
2019-01-16T00:48:44.357Z,100753.73
2019-01-16T00:54:26.150Z,100726.38
2019-01-16T01:00:07.940Z,100743.39
2019-01-16T01:05:43.092Z,100432.63
2019-01-16T01:11:05.362Z,100703.49
2019-01-16T01:16:47.151Z,100707.81
2019-01-16T01:22:28.928Z,100695.42
2019-01-16T01:28:02.758Z,100692.44
2019-01-16T01:33:25.039Z,100692.28
2019-01-16T01:39:06.874Z,100697.08
2019-01-16T01:44:48.639Z,100687.35
2019-01-16T01:50:30.432Z,100686.93
2019-01-16T01:56:12.271Z,100702.81
2019-01-16T02:01:40.964Z,100676.63
2019-01-16T02:07:22.885Z,100682.72
2019-01-16T02:12:45.142Z,100702.59
2019-01-16T02:18:26.930Z,100682.86
2019-01-16T02:24:08.733Z,100717.48
2019-01-16T02:29:50.533Z,100577.97
2019-01-16T02:35:32.356Z,100682.00
2019-01-16T02:41:14.113Z,100441.65
2019-01-16T02:46:55.942Z,100396.35
2019-01-16T02:52:37.763Z,100668.12
2019-01-16T02:58:19.529Z,100677.36
2019-01-16T03:03:54.025Z,100527.06
2019-01-16T03:09:35.825Z,100652.66
2019-01-16T03:14:58.116Z,100657.83
2019-01-16T03:20:39.930Z,100638.36
2019-01-16T03:26:21.759Z,100646.19
2019-01-16T03:32:03.600Z,100331.82
2019-01-16T03:37:45.384Z,100359.48
2019-01-16T03:43:27.222Z,100263.17
2019-01-16T03:49:13.631Z,100612.20
2019-01-16T03:54:55.693Z,100602.10
2019-01-16T04:00:37.560Z,100498.03
2019-01-16T04:06:12.197Z,100600.10
2019-01-16T04:12:02.797Z,100594.98
2019-01-16T04:17:38.115Z,100587.56
2019-01-16T04:22:52.785Z,100572.17
2019-01-16T04:28:17.803Z,100559.34
2019-01-16T04:33:40.094Z,100430.30
2019-01-16T04:45:12.031Z,100548.08
2019-01-16T04:50:53.894Z,100544.53
2019-01-16T04:56:35.707Z,100543.72
2019-01-16T05:01:58.000Z,100427.79
2019-01-16T05:07:39.802Z,100518.37
2019-01-16T05:13:21.616Z,100257.66
2019-01-16T05:18:43.894Z,100538.41
2019-01-16T05:24:25.685Z,100519.78
2019-01-16T05:30:07.466Z,100459.30
2019-01-16T05:35:49.246Z,100515.48
2019-01-16T05:41:31.039Z,100163.18
2019-01-16T05:46:59.596Z,100518.70
2019-01-16T05:52:41.406Z,100486.77
2019-01-16T05:58:23.179Z,100388.84
2019-01-16T06:03:49.051Z,100501.96
2019-01-16T06:09:30.835Z,100141.52
2019-01-16T06:15:12.619Z,100467.81
2019-01-16T06:20:54.395Z,100480.33
2019-01-16T06:26:36.181Z,100486.75
2019-01-16T06:32:11.372Z,100482.78
2019-01-16T06:37:53.160Z,100478.81
2019-01-16T06:43:34.930Z,100244.54
2019-01-16T06:49:16.726Z,100495.32
2019-01-16T06:54:58.500Z,100368.47
2019-01-16T07:00:20.782Z,100492.18
2019-01-16T07:05:46.517Z,100475.84
2019-01-16T07:11:28.303Z,100201.92
2019-01-16T07:17:10.089Z,100131.77
2019-01-16T07:22:51.871Z,100265.30
2019-01-16T07:28:33.658Z,100311.22
2019-01-16T07:34:15.470Z,100470.39
2019-01-16T07:39:57.245Z,100487.97
2019-01-16T07:45:39.016Z,100497.94
2019-01-16T07:51:20.822Z,100493.36
2019-01-16T07:56:49.619Z,100478.89
2019-01-16T08:02:27.533Z,100480.09
2019-01-16T08:08:09.335Z,100489.33
2019-01-16T08:13:51.115Z,100485.84
2019-01-16T08:19:32.919Z,100352.78
2019-01-16T08:24:55.242Z,100483.89
2019-01-16T08:30:37.137Z,100407.83
2019-01-16T08:36:18.921Z,100478.66
2019-01-16T08:42:00.715Z,100457.73
2019-01-16T08:47:42.493Z,100457.41
2019-01-16T08:53:24.323Z,100456.92
2019-01-16T08:59:06.172Z,100345.30
2019-01-16T09:04:32.624Z,100452.30
2019-01-16T09:10:14.399Z,100315.08
2019-01-16T09:15:56.177Z,100443.70
2019-01-16T09:21:31.662Z,100444.13
2019-01-16T09:27:13.455Z,100418.19
2019-01-16T09:32:51.802Z,100435.88
2019-01-16T09:38:33.600Z,100449.19
2019-01-16T09:44:15.390Z,100450.94
2019-01-16T09:49:57.185Z,100441.48
2019-01-16T09:55:38.991Z,100413.84
2019-01-16T10:01:20.952Z,100409.02
2019-01-16T10:06:56.117Z,100426.58
2019-01-16T10:12:37.928Z,100280.86
2019-01-16T10:18:16.595Z,100411.37
2019-01-16T10:23:50.099Z,100400.02
2019-01-16T10:29:31.879Z,100396.80
2019-01-16T10:35:13.682Z,100297.50
2019-01-16T10:40:56.142Z,100380.95
2019-01-16T10:46:37.924Z,100374.77
2019-01-16T10:52:19.735Z,100227.33
2019-01-16T10:58:01.527Z,100350.18
2019-01-16T11:03:41.914Z,100358.87
2019-01-16T11:09:46.996Z,100340.37
2019-01-16T11:15:18.407Z,100339.87
2019-01-16T11:21:00.236Z,100341.94
2019-01-16T11:26:42.040Z,100311.06
2019-01-16T11:32:23.864Z,100302.24
2019-01-16T11:38:05.652Z,100309.39
2019-01-16T11:43:47.745Z,100318.92
2019-01-16T11:49:29.515Z,100293.36
2019-01-16T11:55:11.303Z,100304.34
2019-01-16T12:00:33.952Z,100284.22
2019-01-16T12:06:08.534Z,100266.12
2019-01-16T12:11:50.314Z,100018.95
2019-01-16T12:17:32.080Z,100259.02
2019-01-16T12:23:11.316Z,100032.05
2019-01-16T12:28:53.109Z,100235.55
2019-01-16T12:34:34.890Z,100228.86
2019-01-16T12:40:16.672Z,100240.80
2019-01-16T12:45:58.449Z,100012.54
2019-01-16T12:51:40.241Z,100221.53
2019-01-16T12:57:22.044Z,100208.36
2019-01-16T13:02:44.241Z,99968.67
2019-01-16T13:08:26.016Z,100185.06
2019-01-16T13:14:07.806Z,100011.39
2019-01-16T13:19:38.383Z,100074.78
2019-01-16T13:25:20.189Z,100081.01
2019-01-16T13:31:01.972Z,100195.88
2019-01-16T13:36:43.766Z,99946.83
2019-01-16T13:42:06.241Z,100155.36
2019-01-16T13:47:48.059Z,100157.79
2019-01-16T13:53:29.849Z,100156.72
2019-01-16T13:59:11.642Z,100134.54
2019-01-16T14:04:33.943Z,100133.56
2019-01-16T14:10:15.730Z,100127.34
2019-01-16T14:15:47.783Z,100132.37
2019-01-16T14:21:29.597Z,99900.19
2019-01-16T14:27:11.865Z,99831.52
2019-01-16T14:32:53.698Z,100133.88
2019-01-16T14:38:35.491Z,100127.30
2019-01-16T14:44:17.278Z,100135.78
2019-01-16T14:49:26.811Z,100109.90
2019-01-16T14:55:05.823Z,100090.27
2019-01-16T15:00:43.347Z,100091.30
2019-01-16T15:06:18.141Z,100083.98
2019-01-16T15:11:59.947Z,100090.45
2019-01-16T15:17:41.741Z,100077.34
2019-01-16T15:23:19.882Z,99776.98
2019-01-16T15:28:42.154Z,100057.66
2019-01-16T15:40:13.817Z,100057.95
2019-01-16T15:45:36.094Z,99941.95
2019-01-16T15:51:17.896Z,100040.46
2019-01-16T15:56:59.688Z,99803.48
2019-01-16T16:02:34.635Z,99901.72
2019-01-16T16:08:16.500Z,99997.43
2019-01-16T16:13:58.299Z,100038.95
2019-01-16T16:19:20.831Z,99896.30
2019-01-16T16:24:55.025Z,99996.96
2019-01-16T16:30:36.828Z,99995.88
2019-01-16T16:35:50.088Z,99972.02
2019-01-16T16:41:31.898Z,99969.69
2019-01-16T16:47:13.690Z,99967.55
2019-01-16T16:52:55.472Z,99962.67
2019-01-16T16:58:37.252Z,99951.92
2019-01-16T17:04:05.206Z,99931.16
2019-01-16T17:09:35.457Z,99796.91
2019-01-16T17:14:57.730Z,99936.61
2019-01-16T17:20:39.529Z,99918.25
2019-01-16T17:26:21.416Z,99922.72
2019-01-16T17:31:43.711Z,99910.45
2019-01-16T17:37:25.491Z,99918.33
2019-01-16T17:43:07.354Z,99918.13
2019-01-16T17:48:29.689Z,99869.75
2019-01-16T17:54:11.466Z,99875.82
2019-01-16T17:59:34.087Z,99879.37
2019-01-16T18:05:05.064Z,99858.20
2019-01-16T18:10:46.873Z,99877.13
2019-01-16T18:16:28.793Z,99678.72
2019-01-16T18:22:10.566Z,99842.80
2019-01-16T18:27:47.547Z,99850.66
2019-01-16T18:33:29.405Z,99843.99
2019-01-16T18:38:51.690Z,99842.57
2019-01-16T18:44:28.050Z,99832.32
2019-01-16T18:50:28.270Z,99739.92
2019-01-16T18:56:07.909Z,99623.90
2019-01-16T19:01:41.635Z,99832.30
2019-01-16T19:07:17.951Z,99819.78
2019-01-16T19:13:01.599Z,99831.13
2019-01-16T19:18:45.175Z,99794.73
2019-01-16T19:24:28.845Z,99786.16
2019-01-16T19:30:10.772Z,99803.42
2019-01-16T19:35:52.729Z,99797.48
2019-01-16T19:41:15.392Z,99782.23
2019-01-16T19:46:57.309Z,99764.91
2019-01-16T19:52:39.191Z,99786.77
2019-01-16T19:58:10.309Z,99780.82
2019-01-16T20:03:47.200Z,99484.38
2019-01-16T20:09:11.083Z,99736.95
2019-01-16T20:14:54.194Z,99729.33
2019-01-16T20:20:37.565Z,99592.50
2019-01-16T20:26:12.162Z,99717.83
2019-01-16T20:31:58.639Z,99713.19
2019-01-16T20:49:14.886Z,99646.35
2019-01-16T20:54:58.119Z,99687.59
2019-01-16T21:01:00.550Z,99457.52
2019-01-16T21:06:38.061Z,99656.06
2019-01-16T21:12:14.071Z,99647.41
2019-01-16T21:17:37.533Z,99664.73
2019-01-16T21:23:02.666Z,99631.19
2019-01-16T21:28:45.915Z,99646.27
2019-01-16T21:34:08.372Z,99639.59
2019-01-16T21:39:50.251Z,99624.02
2019-01-16T21:45:32.786Z,99649.55
2019-01-16T21:51:34.203Z,99637.48
2019-01-16T21:57:16.228Z,99628.03
2019-01-16T22:02:54.062Z,99632.52
2019-01-16T22:26:10.294Z,99556.36
2019-01-16T22:31:54.533Z,99564.53
2019-01-16T22:43:09.731Z,99545.77
2019-01-16T22:48:34.399Z,99546.02
2019-01-16T23:12:00.872Z,99507.92
2019-01-16T23:17:23.428Z,99260.53
2019-01-16T23:23:05.347Z,99494.89
2019-01-16T23:28:28.515Z,99509.47
2019-01-16T23:34:02.454Z,99490.64
2019-01-16T23:39:26.975Z,99509.41
2019-01-16T23:45:08.876Z,99502.00
2019-01-16T23:50:50.768Z,99513.10
2019-01-16T23:56:33.818Z,99498.47
